createdAt,value
2019-05-14T00:01:21.962Z,2.00
2019-05-14T00:04:11.560Z,1.87
2019-05-14T00:07:01.048Z,1.90
2019-05-14T00:09:51.742Z,2.00
2019-05-14T00:12:39.091Z,1.50
2019-05-14T00:15:27.634Z,2.20
2019-05-14T00:18:15.899Z,1.80
2019-05-14T00:21:03.875Z,2.10
2019-05-14T00:23:52.846Z,2.00
2019-05-14T00:26:42.684Z,2.17
2019-05-14T00:29:31.982Z,2.07
2019-05-14T00:32:21.650Z,2.03
2019-05-14T00:35:11.695Z,1.73
2019-05-14T00:38:01.305Z,2.83
2019-05-14T00:40:51.184Z,1.80
2019-05-14T00:43:41.534Z,2.10
2019-05-14T00:46:28.916Z,2.23
2019-05-14T00:49:17.178Z,2.20
2019-05-14T00:52:05.183Z,3.00
2019-05-14T00:54:52.718Z,2.57
2019-05-14T00:57:42.521Z,2.23
2019-05-14T01:00:31.405Z,2.47
2019-05-14T01:03:21.768Z,1.73
2019-05-14T01:06:11.388Z,2.60
2019-05-14T01:09:01.360Z,2.10
2019-05-14T01:11:51.315Z,2.13
2019-05-14T01:14:39.235Z,2.03
2019-05-14T01:17:27.732Z,2.43
2019-05-14T01:20:16.038Z,2.30
2019-05-14T01:23:04.207Z,2.20
2019-05-14T01:25:53.019Z,2.50
2019-05-14T01:28:41.763Z,2.10
2019-05-14T01:31:31.446Z,2.50
2019-05-14T01:34:18.980Z,2.90
2019-05-14T01:37:06.832Z,2.50
2019-05-14T01:39:54.783Z,2.43
2019-05-14T01:42:42.951Z,2.50
2019-05-14T01:45:31.617Z,3.20
2019-05-14T01:48:21.988Z,2.83
2019-05-14T01:51:11.926Z,2.37
2019-05-14T01:54:01.488Z,2.53
2019-05-14T01:56:51.453Z,2.20
2019-05-14T01:59:42.642Z,2.97
2019-05-14T02:02:31.342Z,2.40
2019-05-14T02:05:21.645Z,2.67
2019-05-14T02:08:09.347Z,3.03
2019-05-14T02:10:56.836Z,3.30
2019-05-14T02:13:48.255Z,2.80
2019-05-14T02:16:34.463Z,3.73
2019-05-14T02:19:22.296Z,3.17
2019-05-14T02:22:11.312Z,3.10
2019-05-14T02:24:59.443Z,3.70
2019-05-14T02:27:46.947Z,3.43
2019-05-14T02:30:48.089Z,2.93
2019-05-14T02:33:23.860Z,3.13
2019-05-14T02:36:11.807Z,3.40
2019-05-14T02:39:00.573Z,3.50
2019-05-14T02:41:49.925Z,8.17
2019-05-14T02:44:40.661Z,11.03
2019-05-14T02:47:29.836Z,7.67
2019-05-14T02:50:20.205Z,4.20
2019-05-14T02:53:10.234Z,4.77
2019-05-14T02:55:59.324Z,4.30
2019-05-14T02:58:49.912Z,3.87
2019-05-14T03:01:40.486Z,4.23
2019-05-14T03:04:26.176Z,4.10
2019-05-14T03:07:14.771Z,3.43
2019-05-14T03:10:03.174Z,4.50
2019-05-14T03:12:52.091Z,4.33
2019-05-14T03:15:40.106Z,4.03
2019-05-14T03:18:29.547Z,3.80
2019-05-14T03:21:19.803Z,4.43
2019-05-14T03:24:09.625Z,4.20
2019-05-14T03:26:58.747Z,4.17
2019-05-14T03:29:49.938Z,5.50
2019-05-14T03:32:41.701Z,4.83
2019-05-14T03:35:35.543Z,5.13
2019-05-14T03:38:16.171Z,4.30
2019-05-14T03:41:04.661Z,5.50
2019-05-14T03:43:52.968Z,6.13
2019-05-14T03:46:48.874Z,4.80
2019-05-14T03:49:30.340Z,5.53
2019-05-14T03:52:20.039Z,5.23
2019-05-14T03:55:09.698Z,5.30
2019-05-14T03:57:59.533Z,5.70
2019-05-14T04:00:50.845Z,4.97
2019-05-14T04:03:40.108Z,6.03
2019-05-14T04:06:30.331Z,5.40
2019-05-14T04:09:20.479Z,6.07
2019-05-14T04:12:09.987Z,10.70
2019-05-14T04:14:59.896Z,9.00
2019-05-14T04:17:50.385Z,7.20
2019-05-14T04:20:40.432Z,6.10
2019-05-14T04:23:29.828Z,7.17
2019-05-14T04:26:21.526Z,6.30
2019-05-14T04:29:12.782Z,5.97
2019-05-14T04:32:02.208Z,6.40
2019-05-14T04:34:50.540Z,7.37
2019-05-14T04:37:39.937Z,6.57
2019-05-14T04:40:29.699Z,7.20
2019-05-14T04:43:19.213Z,5.77
2019-05-14T04:46:10.543Z,6.40
2019-05-14T04:48:59.269Z,6.10
2019-05-14T04:51:49.957Z,6.30
2019-05-14T04:54:39.369Z,5.80
2019-05-14T04:57:26.292Z,5.90
2019-05-14T05:00:14.784Z,6.17
2019-05-14T05:03:02.388Z,5.80
2019-05-14T05:05:50.218Z,6.20
2019-05-14T05:08:39.552Z,5.77
2019-05-14T05:11:29.095Z,6.57
2019-05-14T05:14:19.166Z,5.80
2019-05-14T05:17:09.167Z,5.87
2019-05-14T05:19:59.350Z,6.80
2019-05-14T05:22:48.524Z,5.83
2019-05-14T05:25:38.425Z,6.03
2019-05-14T05:28:28.346Z,6.80
2019-05-14T05:31:18.505Z,6.60
2019-05-14T05:34:08.923Z,6.40
2019-05-14T05:36:59.172Z,7.17
2019-05-14T05:39:49.053Z,6.53
2019-05-14T05:42:38.539Z,6.93
2019-05-14T05:45:28.975Z,7.70
2019-05-14T05:48:18.597Z,7.93
2019-05-14T05:51:05.653Z,7.13
2019-05-14T05:53:53.938Z,7.20
2019-05-14T05:56:41.439Z,6.67
2019-05-14T05:59:29.442Z,6.60
2019-05-14T06:02:18.633Z,6.60
2019-05-14T06:05:08.067Z,6.83
2019-05-14T06:07:59.060Z,6.70
2019-05-14T06:10:48.754Z,7.40
2019-05-14T06:13:35.973Z,7.00
2019-05-14T06:16:23.863Z,6.73
2019-05-14T06:19:11.956Z,7.53
2019-05-14T06:22:04.044Z,7.37
2019-05-14T06:24:49.851Z,7.10
2019-05-14T06:27:38.239Z,8.53
2019-05-14T06:30:34.550Z,7.57
2019-05-14T06:33:22.457Z,7.50
2019-05-14T06:36:14.388Z,8.00
2019-05-14T06:39:00.792Z,7.40
2019-05-14T06:41:49.297Z,7.30
2019-05-14T06:44:38.595Z,7.30
2019-05-14T06:47:28.910Z,7.20
2019-05-14T06:50:19.057Z,7.83
2019-05-14T06:53:08.518Z,8.90
2019-05-14T06:55:58.727Z,7.60
2019-05-14T06:58:48.772Z,8.23
2019-05-14T07:01:38.254Z,7.40
2019-05-14T07:04:25.305Z,7.20
2019-05-14T07:07:13.833Z,8.60
2019-05-14T07:10:01.930Z,8.90
2019-05-14T07:12:50.033Z,9.67
2019-05-14T07:15:38.760Z,8.40
2019-05-14T07:18:30.266Z,8.70
2019-05-14T07:21:18.514Z,8.10
2019-05-14T07:24:08.567Z,8.57
2019-05-14T07:26:58.368Z,8.20
2019-05-14T07:29:45.531Z,8.70
2019-05-14T07:32:33.786Z,8.50
2019-05-14T07:35:22.165Z,7.70
2019-05-14T07:38:10.163Z,7.70
2019-05-14T07:40:58.644Z,7.93
2019-05-14T07:43:48.340Z,8.83
2019-05-14T07:46:38.830Z,7.23
2019-05-14T07:49:28.875Z,8.60
2019-05-14T07:52:15.895Z,6.23
2019-05-14T07:55:04.567Z,7.40
2019-05-14T07:57:52.383Z,7.77
2019-05-14T08:00:40.525Z,7.27
2019-05-14T08:03:28.608Z,6.20
2019-05-14T08:06:18.952Z,6.77
2019-05-14T08:09:08.844Z,7.53
2019-05-14T08:11:58.767Z,6.97
2019-05-14T08:15:08.553Z,6.43
2019-05-14T08:17:36.015Z,6.80
2019-05-14T08:20:23.614Z,6.70
2019-05-14T08:23:11.619Z,5.80
2019-05-14T08:26:03.676Z,6.03
2019-05-14T08:28:49.911Z,6.10
2019-05-14T08:31:38.479Z,5.93
2019-05-14T08:34:28.624Z,6.03
2019-05-14T08:37:15.612Z,5.30
2019-05-14T08:40:04.464Z,6.47
2019-05-14T08:42:52.015Z,7.03
2019-05-14T08:45:41.271Z,6.00
2019-05-14T08:48:29.855Z,4.73
2019-05-14T08:51:18.622Z,5.97
2019-05-14T08:54:08.199Z,6.43
2019-05-14T08:56:58.448Z,6.23
2019-05-14T08:59:45.371Z,6.10
2019-05-14T09:02:33.355Z,5.80
2019-05-14T09:05:21.539Z,6.10
2019-05-14T09:08:09.936Z,5.67
2019-05-14T09:10:59.039Z,5.70
2019-05-14T09:13:49.037Z,5.90
2019-05-14T09:16:46.209Z,5.60
2019-05-14T09:19:28.765Z,5.83
2019-05-14T09:22:18.487Z,5.97
2019-05-14T09:25:08.483Z,5.10
2019-05-14T09:27:58.574Z,4.97
2019-05-14T09:30:48.582Z,5.17
2019-05-14T09:33:38.648Z,5.10
2019-05-14T09:36:25.571Z,4.63
2019-05-14T09:39:13.651Z,5.63
2019-05-14T09:42:01.912Z,5.57
2019-05-14T09:44:49.870Z,5.47
2019-05-14T09:47:38.826Z,5.40
2019-05-14T09:50:29.149Z,5.87
2019-05-14T09:53:18.154Z,5.13
2019-05-14T09:56:08.878Z,5.00
2019-05-14T09:58:58.676Z,5.10
2019-05-14T10:01:50.657Z,5.83
2019-05-14T10:04:39.122Z,4.70
2019-05-14T10:07:28.757Z,4.80
2019-05-14T10:10:19.566Z,4.67
2019-05-14T10:13:09.527Z,4.57
2019-05-14T10:15:58.892Z,4.50
2019-05-14T10:18:49.016Z,3.60
2019-05-14T10:21:38.854Z,3.60
2019-05-14T10:24:29.097Z,3.80
2019-05-14T10:27:18.957Z,3.20
2019-05-14T10:30:09.997Z,3.50
2019-05-14T10:33:07.183Z,4.17
2019-05-14T10:35:48.427Z,3.13
2019-05-14T10:38:38.719Z,3.63
2019-05-14T10:41:29.073Z,3.80
2019-05-14T10:44:18.807Z,3.60
2019-05-14T10:47:09.176Z,3.40
2019-05-14T10:49:58.373Z,3.17
2019-05-14T10:52:48.893Z,3.53
2019-05-14T10:55:38.546Z,3.40
2019-05-14T10:58:28.838Z,4.03
2019-05-14T11:01:15.732Z,3.50
2019-05-14T11:04:04.089Z,3.73
2019-05-14T11:06:52.675Z,3.30
2019-05-14T11:09:40.904Z,3.30
2019-05-14T11:12:29.761Z,3.93
2019-05-14T11:15:19.090Z,3.13
2019-05-14T11:18:08.624Z,3.60
2019-05-14T11:21:17.965Z,3.00
2019-05-14T11:23:49.058Z,3.43
2019-05-14T11:26:39.132Z,3.80
2019-05-14T11:29:29.235Z,3.57
2019-05-14T11:32:18.396Z,3.75
2019-05-14T11:35:11.739Z,3.22
2019-05-14T11:37:55.047Z,3.92
2019-05-14T11:40:43.020Z,4.57
2019-05-14T11:43:30.811Z,3.80
2019-05-14T11:46:33.645Z,3.30
2019-05-14T11:49:09.015Z,3.80
2019-05-14T11:52:07.321Z,3.53
2019-05-14T11:54:49.421Z,4.00
2019-05-14T11:57:36.483Z,3.23
2019-05-14T12:00:26.079Z,4.40
2019-05-14T12:03:14.317Z,3.57
2019-05-14T12:06:02.408Z,3.40
2019-05-14T12:08:50.113Z,2.97
2019-05-14T12:11:38.537Z,3.22
2019-05-14T12:14:27.058Z,3.37
2019-05-14T12:17:15.051Z,3.67
2019-05-14T12:20:02.936Z,3.10
2019-05-14T12:22:51.108Z,3.50
2019-05-14T12:25:39.457Z,2.80
2019-05-14T12:28:29.227Z,2.90
2019-05-14T12:31:17.665Z,2.93
2019-05-14T12:34:05.835Z,3.30
2019-05-14T12:36:54.427Z,3.20
2019-05-14T12:39:42.006Z,2.90
2019-05-14T12:42:30.272Z,3.00
2019-05-14T12:45:19.055Z,3.03
2019-05-14T12:48:09.316Z,3.10
2019-05-14T12:50:59.489Z,3.07
2019-05-14T12:53:48.750Z,3.07
2019-05-14T12:56:38.819Z,3.25
2019-05-14T12:59:25.852Z,2.80
2019-05-14T13:02:13.619Z,3.45
2019-05-14T13:05:01.822Z,3.40
2019-05-14T13:07:51.262Z,3.40
2019-05-14T13:10:39.603Z,3.10
2019-05-14T13:13:29.058Z,2.60
2019-05-14T13:16:19.268Z,2.85
2019-05-14T13:19:09.227Z,3.12
2019-05-14T13:22:10.009Z,2.70
2019-05-14T13:24:45.725Z,3.08
2019-05-14T13:27:33.860Z,2.85
2019-05-14T13:30:21.903Z,2.42
2019-05-14T13:33:10.397Z,5.10
2019-05-14T13:35:59.390Z,2.80
2019-05-14T13:38:49.005Z,3.45
2019-05-14T13:41:41.558Z,3.05
2019-05-14T13:44:29.238Z,2.83
2019-05-14T13:47:18.241Z,2.87
2019-05-14T13:50:08.467Z,3.20
2019-05-14T13:53:03.159Z,3.87
2019-05-14T13:55:50.658Z,4.95
2019-05-14T13:58:36.319Z,3.37
2019-05-14T14:01:24.227Z,2.58
2019-05-14T14:04:15.177Z,2.67
2019-05-14T14:07:01.963Z,3.95
2019-05-14T14:09:50.391Z,2.57
2019-05-14T14:12:40.336Z,2.43
2019-05-14T14:15:28.876Z,3.80
2019-05-14T14:18:20.676Z,2.60
2019-05-14T14:21:09.112Z,2.72
2019-05-14T14:23:59.261Z,2.80
2019-05-14T14:26:48.768Z,3.02
2019-05-14T14:29:39.317Z,3.00
2019-05-14T14:32:25.939Z,3.00
2019-05-14T14:35:14.629Z,3.87
2019-05-14T14:38:02.418Z,2.60
2019-05-14T14:40:49.978Z,2.47
2019-05-14T14:43:43.576Z,3.00
2019-05-14T14:46:28.794Z,2.73
2019-05-14T14:49:19.203Z,2.50
2019-05-14T14:52:11.769Z,2.63
2019-05-14T14:54:58.995Z,2.43
2019-05-14T14:57:53.613Z,2.50
2019-05-14T15:00:38.111Z,3.00
2019-05-14T15:03:29.344Z,2.70
2019-05-14T15:06:15.603Z,2.70
2019-05-14T15:09:04.712Z,2.40
2019-05-14T15:11:52.600Z,2.33
2019-05-14T15:14:40.993Z,2.73
2019-05-14T15:17:29.587Z,2.63
2019-05-14T15:20:19.470Z,3.87
2019-05-14T15:23:09.897Z,2.83
2019-05-14T15:25:58.924Z,2.37
2019-05-14T15:28:49.469Z,2.20
2019-05-14T15:31:38.526Z,2.50
2019-05-14T15:34:29.717Z,2.70
2019-05-14T15:37:19.051Z,2.10
2019-05-14T15:40:07.160Z,2.10
2019-05-14T15:42:55.538Z,2.50
2019-05-14T15:45:43.127Z,2.53
2019-05-14T15:48:31.119Z,2.20
2019-05-14T15:51:19.926Z,2.20
2019-05-14T15:54:34.488Z,2.20
2019-05-14T15:56:58.764Z,2.40
2019-05-14T15:59:47.009Z,2.97
2019-05-14T16:02:35.190Z,2.80
2019-05-14T16:05:22.763Z,2.00
2019-05-14T16:08:10.939Z,2.27
2019-05-14T16:11:00.354Z,3.07
2019-05-14T16:13:49.590Z,2.03
2019-05-14T16:16:39.201Z,2.20
2019-05-14T16:19:28.428Z,2.00
2019-05-14T16:22:19.502Z,2.10
2019-05-14T16:25:08.916Z,2.50
2019-05-14T16:27:59.328Z,1.80
2019-05-14T16:30:49.544Z,2.07
2019-05-14T16:33:40.484Z,1.90
2019-05-14T16:36:28.859Z,2.37
2019-05-14T16:39:19.095Z,1.87
2019-05-14T16:42:06.589Z,2.00
2019-05-14T16:44:54.948Z,1.90
2019-05-14T16:47:42.638Z,1.73
2019-05-14T16:50:30.891Z,1.90
2019-05-14T16:53:19.562Z,1.80
2019-05-14T16:56:08.288Z,2.07
2019-05-14T16:58:58.363Z,1.90
2019-05-14T17:01:46.003Z,1.83
2019-05-14T17:04:34.379Z,1.93
2019-05-14T17:07:22.575Z,2.30
2019-05-14T17:10:10.961Z,2.10
2019-05-14T17:13:01.851Z,2.50
2019-05-14T17:15:49.490Z,1.60
2019-05-14T17:18:37.095Z,1.90
2019-05-14T17:21:25.826Z,1.60
2019-05-14T17:24:14.408Z,1.47
2019-05-14T17:27:02.773Z,1.73
2019-05-14T17:29:51.127Z,1.40
2019-05-14T17:32:39.629Z,1.50
2019-05-14T17:35:29.793Z,1.57
2019-05-14T17:38:18.434Z,1.60
2019-05-14T17:41:09.555Z,1.37
2019-05-14T17:43:58.626Z,1.53
2019-05-14T17:46:48.881Z,1.77
2019-05-14T17:49:39.181Z,1.23
2019-05-14T17:52:29.831Z,1.90
2019-05-14T17:55:18.390Z,1.50
2019-05-14T17:58:06.069Z,1.80
2019-05-14T18:00:58.132Z,1.70
2019-05-14T18:03:45.886Z,2.00
2019-05-14T18:06:34.404Z,1.70
2019-05-14T18:09:22.197Z,1.57
2019-05-14T18:12:10.349Z,1.57
2019-05-14T18:14:59.187Z,1.67
2019-05-14T18:17:49.568Z,1.83
2019-05-14T18:20:39.447Z,1.83
2019-05-14T18:23:28.991Z,1.87
2019-05-14T18:26:18.813Z,1.67
2019-05-14T18:29:08.644Z,1.80
2019-05-14T18:31:56.238Z,1.43
2019-05-14T18:34:43.891Z,1.30
2019-05-14T18:37:32.088Z,1.90
2019-05-14T18:40:20.865Z,1.90
2019-05-14T18:43:08.813Z,2.00
2019-05-14T18:45:58.647Z,1.60
2019-05-14T18:48:48.644Z,1.73
2019-05-14T18:51:36.889Z,1.40
2019-05-14T18:54:25.781Z,1.90
2019-05-14T18:57:14.203Z,1.83
2019-05-14T19:00:02.661Z,1.83
2019-05-14T19:02:50.516Z,1.33
2019-05-14T19:05:38.384Z,2.73
2019-05-14T19:08:28.630Z,1.80
2019-05-14T19:11:16.167Z,2.97
2019-05-14T19:14:03.987Z,2.90
2019-05-14T19:16:51.710Z,1.90
2019-05-14T19:19:40.032Z,2.07
2019-05-14T19:22:28.890Z,1.67
2019-05-14T19:25:18.582Z,1.50
2019-05-14T19:28:08.911Z,1.83
2019-05-14T19:30:59.649Z,2.03
2019-05-14T19:33:48.773Z,2.07
2019-05-14T19:36:36.877Z,2.03
2019-05-14T19:39:25.284Z,1.80
2019-05-14T19:42:13.559Z,2.20
2019-05-14T19:45:01.091Z,2.63
2019-05-14T19:47:49.450Z,2.10
2019-05-14T19:50:38.721Z,3.93
2019-05-14T19:53:28.387Z,5.70
2019-05-14T19:56:16.543Z,4.47
2019-05-14T19:59:04.251Z,2.77
2019-05-14T20:01:52.211Z,2.60
2019-05-14T20:04:40.589Z,2.57
2019-05-14T20:07:28.863Z,2.00
2019-05-14T20:10:16.664Z,1.80
2019-05-14T20:13:04.723Z,3.13
2019-05-14T20:15:53.273Z,2.40
2019-05-14T20:18:41.213Z,2.60
2019-05-14T20:21:29.058Z,2.53
2019-05-14T20:24:18.741Z,2.97
2019-05-14T20:27:11.812Z,2.10
2019-05-14T20:29:58.090Z,2.10
2019-05-14T20:32:46.635Z,2.10
2019-05-14T20:35:35.224Z,2.17
2019-05-14T20:38:23.691Z,1.97
2019-05-14T20:41:11.852Z,2.00
2019-05-14T20:44:00.333Z,2.30
2019-05-14T20:46:49.079Z,2.60
2019-05-14T20:49:38.085Z,3.07
2019-05-14T20:52:28.387Z,2.50
2019-05-14T20:55:19.063Z,2.63
2019-05-14T20:58:08.040Z,2.87
2019-05-14T21:00:56.297Z,2.63
2019-05-14T21:03:44.343Z,2.60
2019-05-14T21:06:32.368Z,2.63
2019-05-14T21:09:20.748Z,2.30
2019-05-14T21:12:09.020Z,2.03
2019-05-14T21:14:59.157Z,2.37
2019-05-14T21:17:50.153Z,2.43
2019-05-14T21:20:39.118Z,2.20
2019-05-14T21:23:25.994Z,2.10
2019-05-14T21:26:14.668Z,2.53
2019-05-14T21:29:03.493Z,2.40
2019-05-14T21:31:51.823Z,2.23
2019-05-14T21:34:39.806Z,2.93
2019-05-14T21:37:28.552Z,2.33
2019-05-14T21:40:18.510Z,3.20
2019-05-14T21:43:06.180Z,2.70
2019-05-14T21:45:54.446Z,3.30
2019-05-14T21:48:42.231Z,2.47
2019-05-14T21:51:30.703Z,2.30
2019-05-14T21:54:18.932Z,2.03
2019-05-14T21:57:11.620Z,2.80
2019-05-14T21:59:58.810Z,2.57
2019-05-14T22:02:49.120Z,2.23
2019-05-14T22:05:36.443Z,2.50
2019-05-14T22:08:24.847Z,2.27
2019-05-14T22:11:12.764Z,2.70
2019-05-14T22:14:00.740Z,2.40
2019-05-14T22:16:49.036Z,2.90
2019-05-14T22:19:38.399Z,3.30
2019-05-14T22:22:27.817Z,3.10
2019-05-14T22:25:15.990Z,3.00
2019-05-14T22:28:12.410Z,2.40
2019-05-14T22:30:54.303Z,3.07
2019-05-14T22:33:42.632Z,2.73
2019-05-14T22:36:30.420Z,2.60
2019-05-14T22:39:20.071Z,2.87
2019-05-14T22:42:09.209Z,3.40
2019-05-14T22:44:58.422Z,2.73
2019-05-14T22:47:48.921Z,2.80
2019-05-14T22:50:38.727Z,2.63
2019-05-14T22:53:27.866Z,2.53
2019-05-14T22:56:15.775Z,2.53
2019-05-14T22:59:04.540Z,2.70
2019-05-14T23:01:52.298Z,2.70
2019-05-14T23:04:40.934Z,2.80
2019-05-14T23:07:28.549Z,2.70
2019-05-14T23:10:18.404Z,2.90
2019-05-14T23:13:06.420Z,2.90
2019-05-14T23:15:54.679Z,3.17
2019-05-14T23:18:42.683Z,2.63
2019-05-14T23:21:31.202Z,2.47
2019-05-14T23:24:19.233Z,2.80
2019-05-14T23:27:08.304Z,2.40
2019-05-14T23:29:58.568Z,2.80
2019-05-14T23:32:48.823Z,3.03
2019-05-14T23:35:36.006Z,2.93
2019-05-14T23:38:24.841Z,2.73
2019-05-14T23:41:12.811Z,3.00
2019-05-14T23:44:01.512Z,2.60
2019-05-14T23:46:49.047Z,3.33
2019-05-14T23:49:38.927Z,2.70
2019-05-14T23:52:29.260Z,2.90
2019-05-14T23:55:18.070Z,2.80
2019-05-14T23:58:08.327Z,2.53
